sensor_id;sensor_type;location;lat;lon;timestamp;P1;durP1;ratioP1;P2;durP2;ratioP2
72856;SDS011;62742;52.136;4.500;2023-08-24T00:01:11;12.00;;;5.50;;
72856;SDS011;62742;52.136;4.500;2023-08-24T00:03:45;14.48;;;6.35;;
72856;SDS011;62742;52.136;4.500;2023-08-24T00:06:12;10.68;;;6.30;;
72856;SDS011;62742;52.136;4.500;2023-08-24T00:08:43;11.40;;;6.35;;
72856;SDS011;62742;52.136;4.500;2023-08-24T00:11:22;9.85;;;5.25;;
72856;SDS011;62742;52.136;4.500;2023-08-24T00:13:51;13.20;;;6.90;;
72856;SDS011;62742;52.136;4.500;2023-08-24T00:16:18;10.95;;;5.60;;
72856;SDS011;62742;52.136;4.500;2023-08-24T00:18:46;12.65;;;6.00;;
72856;SDS011;62742;52.136;4.500;2023-08-24T00:21:16;11.88;;;5.95;;
72856;SDS011;62742;52.136;4.500;2023-08-24T00:23:49;11.23;;;5.80;;
72856;SDS011;62742;52.136;4.500;2023-08-24T00:26:17;10.48;;;5.28;;
72856;SDS011;62742;52.136;4.500;2023-08-24T00:28:44;9.55;;;5.20;;
72856;SDS011;62742;52.136;4.500;2023-08-24T00:31:20;9.13;;;4.97;;
72856;SDS011;62742;52.136;4.500;2023-08-24T00:34:12;12.45;;;4.90;;
72856;SDS011;62742;52.136;4.500;2023-08-24T00:36:39;12.27;;;5.63;;
72856;SDS011;62742;52.136;4.500;2023-08-24T00:39:06;9.95;;;5.68;;
72856;SDS011;62742;52.136;4.500;2023-08-24T00:42:00;8.68;;;5.30;;
72856;SDS011;62742;52.136;4.500;2023-08-24T00:44:45;13.30;;;5.18;;
72856;SDS011;62742;52.136;4.500;2023-08-24T00:47:11;10.20;;;5.53;;
72856;SDS011;62742;52.136;4.500;2023-08-24T00:49:38;11.40;;;5.85;;
72856;SDS011;62742;52.136;4.500;2023-08-24T00:52:07;13.20;;;5.28;;
72856;SDS011;62742;52.136;4.500;2023-08-24T00:54:48;12.05;;;5.68;;
72856;SDS011;62742;52.136;4.500;2023-08-24T00:57:49;9.70;;;4.97;;
72856;SDS011;62742;52.136;4.500;2023-08-24T01:00:22;12.98;;;5.85;;
72856;SDS011;62742;52.136;4.500;2023-08-24T01:05:37;12.07;;;4.82;;
72856;SDS011;62742;52.136;4.500;2023-08-24T01:08:12;10.23;;;6.05;;
72856;SDS011;62742;52.136;4.500;2023-08-24T01:11:02;13.82;;;7.88;;
72856;SDS011;62742;52.136;4.500;2023-08-24T01:17:10;13.32;;;7.25;;
72856;SDS011;62742;52.136;4.500;2023-08-24T01:19:43;12.48;;;7.45;;
72856;SDS011;62742;52.136;4.500;2023-08-24T01:28:09;18.17;;;10.55;;
72856;SDS011;62742;52.136;4.500;2023-08-24T01:30:40;19.90;;;10.23;;
72856;SDS011;62742;52.136;4.500;2023-08-24T01:33:09;16.00;;;9.07;;
72856;SDS011;62742;52.136;4.500;2023-08-24T01:35:39;15.68;;;9.38;;
72856;SDS011;62742;52.136;4.500;2023-08-24T01:38:07;19.50;;;9.75;;
72856;SDS011;62742;52.136;4.500;2023-08-24T01:43:49;18.77;;;10.90;;
72856;SDS011;62742;52.136;4.500;2023-08-24T01:46:20;15.70;;;10.45;;
72856;SDS011;62742;52.136;4.500;2023-08-24T01:49:25;14.00;;;8.68;;
72856;SDS011;62742;52.136;4.500;2023-08-24T01:51:55;19.67;;;11.70;;
72856;SDS011;62742;52.136;4.500;2023-08-24T01:54:24;20.92;;;12.82;;
72856;SDS011;62742;52.136;4.500;2023-08-24T01:56:54;19.58;;;12.05;;
72856;SDS011;62742;52.136;4.500;2023-08-24T02:00:05;20.15;;;11.38;;
72856;SDS011;62742;52.136;4.500;2023-08-24T02:02:34;17.67;;;11.35;;
72856;SDS011;62742;52.136;4.500;2023-08-24T02:05:03;22.65;;;13.43;;
72856;SDS011;62742;52.136;4.500;2023-08-24T02:07:30;12.98;;;7.75;;
72856;SDS011;62742;52.136;4.500;2023-08-24T02:09:57;16.33;;;11.02;;
72856;SDS011;62742;52.136;4.500;2023-08-24T02:12:23;18.50;;;10.50;;
72856;SDS011;62742;52.136;4.500;2023-08-24T02:14:50;19.08;;;12.05;;
72856;SDS011;62742;52.136;4.500;2023-08-24T02:17:39;18.05;;;12.43;;
72856;SDS011;62742;52.136;4.500;2023-08-24T02:20:08;17.00;;;11.00;;
72856;SDS011;62742;52.136;4.500;2023-08-24T02:23:04;19.15;;;12.25;;
72856;SDS011;62742;52.136;4.500;2023-08-24T02:25:32;14.52;;;8.48;;
72856;SDS011;62742;52.136;4.500;2023-08-24T02:28:01;16.83;;;10.48;;
72856;SDS011;62742;52.136;4.500;2023-08-24T02:30:27;20.20;;;11.63;;
72856;SDS011;62742;52.136;4.500;2023-08-24T02:32:54;14.70;;;9.88;;
72856;SDS011;62742;52.136;4.500;2023-08-24T02:35:26;19.48;;;12.95;;
72856;SDS011;62742;52.136;4.500;2023-08-24T02:37:59;12.23;;;7.47;;
72856;SDS011;62742;52.136;4.500;2023-08-24T02:40:30;15.57;;;10.23;;
72856;SDS011;62742;52.136;4.500;2023-08-24T02:42:58;14.10;;;8.57;;
72856;SDS011;62742;52.136;4.500;2023-08-24T02:45:36;18.73;;;12.23;;
72856;SDS011;62742;52.136;4.500;2023-08-24T02:48:05;26.70;;;13.18;;
72856;SDS011;62742;52.136;4.500;2023-08-24T02:50:35;15.70;;;10.05;;
72856;SDS011;62742;52.136;4.500;2023-08-24T02:53:03;12.73;;;8.48;;
72856;SDS011;62742;52.136;4.500;2023-08-24T02:55:31;17.63;;;10.48;;
72856;SDS011;62742;52.136;4.500;2023-08-24T02:58:00;18.65;;;10.98;;
72856;SDS011;62742;52.136;4.500;2023-08-24T03:00:30;18.58;;;11.48;;
72856;SDS011;62742;52.136;4.500;2023-08-24T03:02:56;15.63;;;9.98;;
72856;SDS011;62742;52.136;4.500;2023-08-24T03:05:24;25.13;;;11.95;;
72856;SDS011;62742;52.136;4.500;2023-08-24T03:07:51;21.60;;;12.60;;
72856;SDS011;62742;52.136;4.500;2023-08-24T03:10:24;16.65;;;10.98;;
72856;SDS011;62742;52.136;4.500;2023-08-24T03:13:01;15.73;;;8.80;;
72856;SDS011;62742;52.136;4.500;2023-08-24T03:15:29;24.55;;;12.65;;
72856;SDS011;62742;52.136;4.500;2023-08-24T03:17:57;16.58;;;11.27;;
72856;SDS011;62742;52.136;4.500;2023-08-24T03:20:23;15.57;;;9.65;;
72856;SDS011;62742;52.136;4.500;2023-08-24T03:22:49;18.08;;;12.02;;
72856;SDS011;62742;52.136;4.500;2023-08-24T03:25:16;12.98;;;8.45;;
72856;SDS011;62742;52.136;4.500;2023-08-24T03:27:44;14.70;;;9.05;;
72856;SDS011;62742;52.136;4.500;2023-08-24T03:30:11;13.93;;;8.63;;
72856;SDS011;62742;52.136;4.500;2023-08-24T03:32:43;18.27;;;11.18;;
72856;SDS011;62742;52.136;4.500;2023-08-24T03:35:22;18.88;;;11.82;;
72856;SDS011;62742;52.136;4.500;2023-08-24T03:37:51;18.40;;;11.40;;
72856;SDS011;62742;52.136;4.500;2023-08-24T03:40:20;16.20;;;10.10;;
72856;SDS011;62742;52.136;4.500;2023-08-24T03:42:48;16.27;;;9.52;;
72856;SDS011;62742;52.136;4.500;2023-08-24T03:45:15;18.45;;;11.85;;
72856;SDS011;62742;52.136;4.500;2023-08-24T03:47:43;18.33;;;10.70;;
72856;SDS011;62742;52.136;4.500;2023-08-24T03:50:12;12.45;;;7.90;;
72856;SDS011;62742;52.136;4.500;2023-08-24T03:52:52;16.63;;;11.35;;
72856;SDS011;62742;52.136;4.500;2023-08-24T03:55:20;16.52;;;11.48;;
72856;SDS011;62742;52.136;4.500;2023-08-24T03:57:50;16.80;;;9.82;;
72856;SDS011;62742;52.136;4.500;2023-08-24T04:00:25;17.17;;;11.18;;
72856;SDS011;62742;52.136;4.500;2023-08-24T04:02:52;17.45;;;10.70;;
72856;SDS011;62742;52.136;4.500;2023-08-24T04:05:25;16.23;;;9.77;;
72856;SDS011;62742;52.136;4.500;2023-08-24T04:08:08;15.55;;;9.52;;
72856;SDS011;62742;52.136;4.500;2023-08-24T04:10:37;15.15;;;10.00;;
72856;SDS011;62742;52.136;4.500;2023-08-24T04:13:03;15.80;;;9.68;;
72856;SDS011;62742;52.136;4.500;2023-08-24T04:15:31;22.33;;;13.55;;
72856;SDS011;62742;52.136;4.500;2023-08-24T04:18:00;15.77;;;9.48;;
72856;SDS011;62742;52.136;4.500;2023-08-24T04:20:28;19.42;;;11.85;;
72856;SDS011;62742;52.136;4.500;2023-08-24T04:23:05;22.02;;;14.00;;
72856;SDS011;62742;52.136;4.500;2023-08-24T04:25:31;22.25;;;13.82;;
72856;SDS011;62742;52.136;4.500;2023-08-24T04:27:58;25.05;;;14.02;;
72856;SDS011;62742;52.136;4.500;2023-08-24T04:30:26;26.23;;;14.32;;
72856;SDS011;62742;52.136;4.500;2023-08-24T04:33:01;24.25;;;14.10;;
72856;SDS011;62742;52.136;4.500;2023-08-24T04:35:29;29.58;;;15.07;;
72856;SDS011;62742;52.136;4.500;2023-08-24T04:38:30;14.00;;;9.13;;
72856;SDS011;62742;52.136;4.500;2023-08-24T04:41:07;19.20;;;11.20;;
72856;SDS011;62742;52.136;4.500;2023-08-24T04:43:51;23.83;;;14.10;;
72856;SDS011;62742;52.136;4.500;2023-08-24T04:46:18;25.98;;;14.60;;
72856;SDS011;62742;52.136;4.500;2023-08-24T04:48:44;21.98;;;13.95;;
72856;SDS011;62742;52.136;4.500;2023-08-24T04:51:15;18.77;;;12.15;;
72856;SDS011;62742;52.136;4.500;2023-08-24T04:53:46;23.17;;;14.82;;
72856;SDS011;62742;52.136;4.500;2023-08-24T04:56:16;25.52;;;14.60;;
72856;SDS011;62742;52.136;4.500;2023-08-24T04:58:57;32.47;;;17.55;;
72856;SDS011;62742;52.136;4.500;2023-08-24T05:01:27;26.20;;;15.27;;
72856;SDS011;62742;52.136;4.500;2023-08-24T05:03:55;23.05;;;14.05;;
72856;SDS011;62742;52.136;4.500;2023-08-24T05:06:28;21.48;;;13.63;;
72856;SDS011;62742;52.136;4.500;2023-08-24T05:08:56;22.23;;;13.60;;
72856;SDS011;62742;52.136;4.500;2023-08-24T05:11:23;24.85;;;15.32;;
72856;SDS011;62742;52.136;4.500;2023-08-24T05:13:55;22.70;;;13.57;;
72856;SDS011;62742;52.136;4.500;2023-08-24T05:16:22;22.75;;;14.60;;
72856;SDS011;62742;52.136;4.500;2023-08-24T05:18:55;22.52;;;13.93;;
72856;SDS011;62742;52.136;4.500;2023-08-24T05:21:49;21.85;;;14.38;;
72856;SDS011;62742;52.136;4.500;2023-08-24T05:24:17;24.10;;;13.05;;
72856;SDS011;62742;52.136;4.500;2023-08-24T05:26:54;26.35;;;15.63;;
72856;SDS011;62742;52.136;4.500;2023-08-24T05:29:26;22.73;;;13.82;;
72856;SDS011;62742;52.136;4.500;2023-08-24T05:31:53;22.40;;;14.50;;
72856;SDS011;62742;52.136;4.500;2023-08-24T05:34:22;23.63;;;16.00;;
72856;SDS011;62742;52.136;4.500;2023-08-24T05:36:50;22.88;;;15.23;;
72856;SDS011;62742;52.136;4.500;2023-08-24T05:39:29;25.13;;;15.80;;
72856;SDS011;62742;52.136;4.500;2023-08-24T05:41:55;29.02;;;16.08;;
72856;SDS011;62742;52.136;4.500;2023-08-24T05:44:27;28.27;;;15.77;;
72856;SDS011;62742;52.136;4.500;2023-08-24T05:47:08;27.27;;;15.00;;
72856;SDS011;62742;52.136;4.500;2023-08-24T05:49:38;19.42;;;12.82;;
72856;SDS011;62742;52.136;4.500;2023-08-24T05:52:04;27.73;;;16.30;;
72856;SDS011;62742;52.136;4.500;2023-08-24T05:54:31;26.40;;;16.60;;
72856;SDS011;62742;52.136;4.500;2023-08-24T05:56:58;26.25;;;16.70;;
72856;SDS011;62742;52.136;4.500;2023-08-24T05:59:27;24.63;;;16.33;;
72856;SDS011;62742;52.136;4.500;2023-08-24T06:01:54;22.75;;;14.30;;
72856;SDS011;62742;52.136;4.500;2023-08-24T06:04:21;19.27;;;12.57;;
72856;SDS011;62742;52.136;4.500;2023-08-24T06:06:53;19.67;;;12.68;;
72856;SDS011;62742;52.136;4.500;2023-08-24T06:09:56;20.70;;;13.13;;
72856;SDS011;62742;52.136;4.500;2023-08-24T06:12:23;19.17;;;12.43;;
72856;SDS011;62742;52.136;4.500;2023-08-24T06:14:50;24.48;;;12.23;;
72856;SDS011;62742;52.136;4.500;2023-08-24T06:17:17;17.00;;;11.60;;
72856;SDS011;62742;52.136;4.500;2023-08-24T06:19:49;17.13;;;10.95;;
72856;SDS011;62742;52.136;4.500;2023-08-24T06:22:43;17.05;;;10.88;;
72856;SDS011;62742;52.136;4.500;2023-08-24T06:25:10;18.70;;;11.40;;
72856;SDS011;62742;52.136;4.500;2023-08-24T06:27:36;17.02;;;10.52;;
72856;SDS011;62742;52.136;4.500;2023-08-24T06:30:04;16.63;;;10.85;;
72856;SDS011;62742;52.136;4.500;2023-08-24T06:32:35;16.77;;;10.43;;
72856;SDS011;62742;52.136;4.500;2023-08-24T06:36:12;17.42;;;10.82;;
72856;SDS011;62742;52.136;4.500;2023-08-24T06:39:40;15.98;;;10.80;;
72856;SDS011;62742;52.136;4.500;2023-08-24T06:42:08;16.58;;;9.95;;
72856;SDS011;62742;52.136;4.500;2023-08-24T06:44:36;14.63;;;10.73;;
72856;SDS011;62742;52.136;4.500;2023-08-24T06:47:23;20.23;;;11.68;;
72856;SDS011;62742;52.136;4.500;2023-08-24T06:50:01;16.38;;;10.68;;
72856;SDS011;62742;52.136;4.500;2023-08-24T06:52:29;17.27;;;11.80;;
72856;SDS011;62742;52.136;4.500;2023-08-24T06:55:11;19.25;;;11.52;;
72856;SDS011;62742;52.136;4.500;2023-08-24T06:57:54;17.02;;;11.57;;
72856;SDS011;62742;52.136;4.500;2023-08-24T07:00:23;15.65;;;10.65;;
72856;SDS011;62742;52.136;4.500;2023-08-24T07:02:52;16.70;;;11.20;;
72856;SDS011;62742;52.136;4.500;2023-08-24T07:05:23;19.20;;;10.40;;
72856;SDS011;62742;52.136;4.500;2023-08-24T07:07:51;18.45;;;11.45;;
72856;SDS011;62742;52.136;4.500;2023-08-24T07:13:09;18.05;;;11.13;;
72856;SDS011;62742;52.136;4.500;2023-08-24T07:15:36;20.02;;;10.80;;
72856;SDS011;62742;52.136;4.500;2023-08-24T07:18:04;16.55;;;11.18;;
72856;SDS011;62742;52.136;4.500;2023-08-24T07:20:36;23.58;;;12.30;;
72856;SDS011;62742;52.136;4.500;2023-08-24T07:23:06;16.70;;;12.18;;
72856;SDS011;62742;52.136;4.500;2023-08-24T07:25:33;19.75;;;11.75;;
72856;SDS011;62742;52.136;4.500;2023-08-24T07:28:00;21.20;;;12.32;;
72856;SDS011;62742;52.136;4.500;2023-08-24T07:30:31;16.33;;;11.30;;
72856;SDS011;62742;52.136;4.500;2023-08-24T07:33:01;16.35;;;11.35;;
72856;SDS011;62742;52.136;4.500;2023-08-24T07:35:33;19.70;;;13.40;;
72856;SDS011;62742;52.136;4.500;2023-08-24T07:38:22;19.85;;;13.02;;
72856;SDS011;62742;52.136;4.500;2023-08-24T07:40:51;19.75;;;13.32;;
72856;SDS011;62742;52.136;4.500;2023-08-24T07:43:23;18.00;;;13.30;;
72856;SDS011;62742;52.136;4.500;2023-08-24T07:45:58;18.73;;;12.90;;
72856;SDS011;62742;52.136;4.500;2023-08-24T07:48:27;23.40;;;14.82;;
72856;SDS011;62742;52.136;4.500;2023-08-24T07:51:06;20.08;;;14.30;;
72856;SDS011;62742;52.136;4.500;2023-08-24T07:53:36;21.17;;;14.95;;
72856;SDS011;62742;52.136;4.500;2023-08-24T07:56:06;21.45;;;15.27;;
72856;SDS011;62742;52.136;4.500;2023-08-24T07:58:42;20.08;;;14.98;;
72856;SDS011;62742;52.136;4.500;2023-08-24T08:01:49;24.08;;;15.73;;
72856;SDS011;62742;52.136;4.500;2023-08-24T08:04:21;22.90;;;15.80;;
72856;SDS011;62742;52.136;4.500;2023-08-24T08:06:52;21.42;;;14.98;;
72856;SDS011;62742;52.136;4.500;2023-08-24T08:09:43;22.23;;;15.23;;
72856;SDS011;62742;52.136;4.500;2023-08-24T08:12:32;21.85;;;15.85;;
72856;SDS011;62742;52.136;4.500;2023-08-24T08:17:49;22.20;;;15.25;;
72856;SDS011;62742;52.136;4.500;2023-08-24T08:20:33;19.55;;;15.43;;
72856;SDS011;62742;52.136;4.500;2023-08-24T08:23:01;24.65;;;16.42;;
72856;SDS011;62742;52.136;4.500;2023-08-24T08:25:29;21.05;;;14.38;;
72856;SDS011;62742;52.136;4.500;2023-08-24T08:28:00;19.00;;;15.13;;
72856;SDS011;62742;52.136;4.500;2023-08-24T08:30:54;22.60;;;15.18;;
72856;SDS011;62742;52.136;4.500;2023-08-24T08:33:21;21.67;;;15.40;;
72856;SDS011;62742;52.136;4.500;2023-08-24T08:35:56;21.15;;;14.55;;
72856;SDS011;62742;52.136;4.500;2023-08-24T08:38:35;22.52;;;15.90;;
72856;SDS011;62742;52.136;4.500;2023-08-24T08:41:11;18.30;;;14.75;;
72856;SDS011;62742;52.136;4.500;2023-08-24T08:44:13;22.60;;;15.98;;
72856;SDS011;62742;52.136;4.500;2023-08-24T08:46:51;22.58;;;15.15;;
72856;SDS011;62742;52.136;4.500;2023-08-24T08:49:35;24.38;;;16.25;;
72856;SDS011;62742;52.136;4.500;2023-08-24T08:52:23;26.83;;;14.82;;
72856;SDS011;62742;52.136;4.500;2023-08-24T08:55:22;21.90;;;15.00;;
72856;SDS011;62742;52.136;4.500;2023-08-24T08:58:07;21.95;;;15.90;;
72856;SDS011;62742;52.136;4.500;2023-08-24T09:01:09;23.02;;;15.73;;
72856;SDS011;62742;52.136;4.500;2023-08-24T09:03:46;23.05;;;16.30;;
72856;SDS011;62742;52.136;4.500;2023-08-24T09:06:18;26.60;;;16.90;;
72856;SDS011;62742;52.136;4.500;2023-08-24T09:09:04;21.80;;;15.02;;
72856;SDS011;62742;52.136;4.500;2023-08-24T09:15:51;20.67;;;15.07;;
72856;SDS011;62742;52.136;4.500;2023-08-24T09:18:21;21.55;;;14.82;;
72856;SDS011;62742;52.136;4.500;2023-08-24T09:24:30;21.08;;;15.63;;
72856;SDS011;62742;52.136;4.500;2023-08-24T09:31:15;21.25;;;15.15;;
72856;SDS011;62742;52.136;4.500;2023-08-24T09:37:23;21.42;;;14.75;;
72856;SDS011;62742;52.136;4.500;2023-08-24T09:46:59;23.08;;;16.48;;
72856;SDS011;62742;52.136;4.500;2023-08-24T10:00:01;22.05;;;17.08;;
72856;SDS011;62742;52.136;4.500;2023-08-24T10:05:11;24.00;;;17.98;;
72856;SDS011;62742;52.136;4.500;2023-08-24T10:07:55;24.17;;;18.67;;
72856;SDS011;62742;52.136;4.500;2023-08-24T10:16:45;30.55;;;21.95;;
72856;SDS011;62742;52.136;4.500;2023-08-24T10:29:52;26.15;;;20.42;;
72856;SDS011;62742;52.136;4.500;2023-08-24T10:32:22;28.95;;;21.48;;
72856;SDS011;62742;52.136;4.500;2023-08-24T10:41:26;25.73;;;19.63;;
72856;SDS011;62742;52.136;4.500;2023-08-24T10:44:05;22.77;;;17.52;;
72856;SDS011;62742;52.136;4.500;2023-08-24T10:46:37;19.85;;;13.65;;
72856;SDS011;62742;52.136;4.500;2023-08-24T10:50:03;19.60;;;14.00;;
72856;SDS011;62742;52.136;4.500;2023-08-24T10:52:44;21.85;;;14.20;;
72856;SDS011;62742;52.136;4.500;2023-08-24T10:55:23;20.45;;;14.13;;
72856;SDS011;62742;52.136;4.500;2023-08-24T10:57:57;21.30;;;15.07;;
72856;SDS011;62742;52.136;4.500;2023-08-24T11:00:31;22.45;;;14.82;;
72856;SDS011;62742;52.136;4.500;2023-08-24T11:03:02;22.30;;;14.68;;
72856;SDS011;62742;52.136;4.500;2023-08-24T11:05:32;19.10;;;13.65;;
72856;SDS011;62742;52.136;4.500;2023-08-24T11:08:03;19.08;;;12.77;;
72856;SDS011;62742;52.136;4.500;2023-08-24T11:10:34;18.42;;;12.95;;
72856;SDS011;62742;52.136;4.500;2023-08-24T11:13:12;16.33;;;11.88;;
72856;SDS011;62742;52.136;4.500;2023-08-24T11:16:38;15.30;;;11.95;;
72856;SDS011;62742;52.136;4.500;2023-08-24T11:19:06;18.13;;;12.20;;
72856;SDS011;62742;52.136;4.500;2023-08-24T11:21:39;19.23;;;12.65;;
72856;SDS011;62742;52.136;4.500;2023-08-24T11:24:17;17.67;;;11.35;;
72856;SDS011;62742;52.136;4.500;2023-08-24T11:27:01;20.15;;;13.73;;
72856;SDS011;62742;52.136;4.500;2023-08-24T11:29:32;19.30;;;14.82;;
72856;SDS011;62742;52.136;4.500;2023-08-24T11:32:05;24.27;;;16.27;;
72856;SDS011;62742;52.136;4.500;2023-08-24T11:34:33;20.55;;;15.98;;
72856;SDS011;62742;52.136;4.500;2023-08-24T11:37:01;20.27;;;15.93;;
72856;SDS011;62742;52.136;4.500;2023-08-24T11:39:49;23.75;;;16.67;;
72856;SDS011;62742;52.136;4.500;2023-08-24T11:42:16;23.38;;;15.68;;
72856;SDS011;62742;52.136;4.500;2023-08-24T11:44:46;23.92;;;16.98;;
72856;SDS011;62742;52.136;4.500;2023-08-24T11:47:19;21.58;;;16.15;;
72856;SDS011;62742;52.136;4.500;2023-08-24T11:49:48;24.67;;;17.92;;
72856;SDS011;62742;52.136;4.500;2023-08-24T11:52:15;21.30;;;16.83;;
72856;SDS011;62742;52.136;4.500;2023-08-24T11:54:43;24.92;;;18.63;;
72856;SDS011;62742;52.136;4.500;2023-08-24T11:57:33;24.65;;;19.33;;
72856;SDS011;62742;52.136;4.500;2023-08-24T12:00:22;23.30;;;17.98;;
72856;SDS011;62742;52.136;4.500;2023-08-24T12:04:11;23.42;;;17.75;;
72856;SDS011;62742;52.136;4.500;2023-08-24T12:07:29;25.45;;;18.65;;
72856;SDS011;62742;52.136;4.500;2023-08-24T12:10:28;23.20;;;18.95;;
72856;SDS011;62742;52.136;4.500;2023-08-24T12:14:21;24.95;;;18.98;;
72856;SDS011;62742;52.136;4.500;2023-08-24T12:17:44;25.55;;;18.88;;
72856;SDS011;62742;52.136;4.500;2023-08-24T12:23:55;24.00;;;17.70;;
72856;SDS011;62742;52.136;4.500;2023-08-24T12:27:00;21.60;;;17.42;;
72856;SDS011;62742;52.136;4.500;2023-08-24T12:29:44;24.23;;;16.92;;
72856;SDS011;62742;52.136;4.500;2023-08-24T12:36:44;21.92;;;15.52;;
72856;SDS011;62742;52.136;4.500;2023-08-24T12:39:11;22.63;;;16.98;;
72856;SDS011;62742;52.136;4.500;2023-08-24T12:41:47;22.40;;;17.55;;
72856;SDS011;62742;52.136;4.500;2023-08-24T12:44:21;20.80;;;17.48;;
72856;SDS011;62742;52.136;4.500;2023-08-24T12:47:12;26.20;;;18.42;;
72856;SDS011;62742;52.136;4.500;2023-08-24T12:50:30;23.70;;;19.92;;
72856;SDS011;62742;52.136;4.500;2023-08-24T12:52:56;24.98;;;20.65;;
72856;SDS011;62742;52.136;4.500;2023-08-24T12:55:27;30.83;;;25.13;;
72856;SDS011;62742;52.136;4.500;2023-08-24T12:57:58;23.77;;;19.70;;
72856;SDS011;62742;52.136;4.500;2023-08-24T13:01:02;28.60;;;20.23;;
72856;SDS011;62742;52.136;4.500;2023-08-24T13:03:44;24.13;;;20.35;;
72856;SDS011;62742;52.136;4.500;2023-08-24T13:09:33;24.90;;;20.92;;
72856;SDS011;62742;52.136;4.500;2023-08-24T13:12:03;20.30;;;16.20;;
72856;SDS011;62742;52.136;4.500;2023-08-24T13:14:53;62.72;;;56.10;;
72856;SDS011;62742;52.136;4.500;2023-08-24T13:17:22;21.80;;;18.55;;
72856;SDS011;62742;52.136;4.500;2023-08-24T13:19:49;25.08;;;16.48;;
72856;SDS011;62742;52.136;4.500;2023-08-24T13:22:47;19.00;;;14.43;;
72856;SDS011;62742;52.136;4.500;2023-08-24T13:25:57;18.40;;;15.00;;
72856;SDS011;62742;52.136;4.500;2023-08-24T13:28:28;24.98;;;19.95;;
72856;SDS011;62742;52.136;4.500;2023-08-24T13:31:10;23.13;;;17.57;;
72856;SDS011;62742;52.136;4.500;2023-08-24T13:33:37;25.13;;;18.52;;
72856;SDS011;62742;52.136;4.500;2023-08-24T13:39:45;26.23;;;19.33;;
72856;SDS011;62742;52.136;4.500;2023-08-24T13:42:11;24.75;;;18.92;;
72856;SDS011;62742;52.136;4.500;2023-08-24T13:48:24;24.00;;;18.90;;
72856;SDS011;62742;52.136;4.500;2023-08-24T13:50:51;25.05;;;18.27;;
72856;SDS011;62742;52.136;4.500;2023-08-24T13:53:19;25.40;;;19.42;;
72856;SDS011;62742;52.136;4.500;2023-08-24T13:55:45;24.65;;;19.58;;
72856;SDS011;62742;52.136;4.500;2023-08-24T14:12:34;25.67;;;22.52;;
72856;SDS011;62742;52.136;4.500;2023-08-24T14:15:03;26.23;;;22.10;;
72856;SDS011;62742;52.136;4.500;2023-08-24T14:18:35;27.65;;;22.90;;
72856;SDS011;62742;52.136;4.500;2023-08-24T14:21:08;28.48;;;23.13;;
72856;SDS011;62742;52.136;4.500;2023-08-24T14:24:30;28.13;;;23.48;;
72856;SDS011;62742;52.136;4.500;2023-08-24T14:27:22;29.73;;;25.63;;
72856;SDS011;62742;52.136;4.500;2023-08-24T14:29:48;28.95;;;23.77;;
72856;SDS011;62742;52.136;4.500;2023-08-24T14:32:17;29.70;;;25.02;;
72856;SDS011;62742;52.136;4.500;2023-08-24T14:35:11;28.98;;;25.33;;
72856;SDS011;62742;52.136;4.500;2023-08-24T14:37:44;32.38;;;26.08;;
72856;SDS011;62742;52.136;4.500;2023-08-24T14:40:46;30.38;;;25.58;;
72856;SDS011;62742;52.136;4.500;2023-08-24T14:44:03;31.13;;;23.92;;
72856;SDS011;62742;52.136;4.500;2023-08-24T14:46:48;24.88;;;21.05;;
72856;SDS011;62742;52.136;4.500;2023-08-24T14:49:15;23.92;;;19.30;;
72856;SDS011;62742;52.136;4.500;2023-08-24T14:51:46;22.38;;;17.83;;
72856;SDS011;62742;52.136;4.500;2023-08-24T14:54:54;23.88;;;18.27;;
72856;SDS011;62742;52.136;4.500;2023-08-24T14:57:31;23.45;;;17.45;;
72856;SDS011;62742;52.136;4.500;2023-08-24T15:00:00;24.05;;;16.10;;
72856;SDS011;62742;52.136;4.500;2023-08-24T15:02:31;21.75;;;15.10;;
72856;SDS011;62742;52.136;4.500;2023-08-24T15:04:58;24.33;;;17.00;;
72856;SDS011;62742;52.136;4.500;2023-08-24T15:07:24;20.92;;;15.27;;
72856;SDS011;62742;52.136;4.500;2023-08-24T15:09:51;17.70;;;14.30;;
72856;SDS011;62742;52.136;4.500;2023-08-24T15:12:17;19.30;;;13.48;;
72856;SDS011;62742;52.136;4.500;2023-08-24T15:14:59;17.90;;;12.70;;
72856;SDS011;62742;52.136;4.500;2023-08-24T15:17:29;17.15;;;12.20;;
72856;SDS011;62742;52.136;4.500;2023-08-24T15:19:57;16.02;;;12.00;;
72856;SDS011;62742;52.136;4.500;2023-08-24T15:22:25;18.42;;;11.93;;
72856;SDS011;62742;52.136;4.500;2023-08-24T15:24:56;18.08;;;11.70;;
72856;SDS011;62742;52.136;4.500;2023-08-24T15:27:24;14.88;;;11.80;;
72856;SDS011;62742;52.136;4.500;2023-08-24T15:29:51;16.25;;;11.68;;
72856;SDS011;62742;52.136;4.500;2023-08-24T15:32:18;17.50;;;11.77;;
72856;SDS011;62742;52.136;4.500;2023-08-24T15:34:46;15.80;;;11.38;;
72856;SDS011;62742;52.136;4.500;2023-08-24T15:37:13;15.23;;;10.13;;
72856;SDS011;62742;52.136;4.500;2023-08-24T15:39:41;18.40;;;10.52;;
72856;SDS011;62742;52.136;4.500;2023-08-24T15:42:12;16.73;;;10.98;;
72856;SDS011;62742;52.136;4.500;2023-08-24T15:44:54;19.08;;;11.20;;
72856;SDS011;62742;52.136;4.500;2023-08-24T15:47:23;15.52;;;10.63;;
72856;SDS011;62742;52.136;4.500;2023-08-24T15:49:57;15.70;;;10.30;;
72856;SDS011;62742;52.136;4.500;2023-08-24T15:52:24;15.43;;;10.25;;
72856;SDS011;62742;52.136;4.500;2023-08-24T15:55:05;16.85;;;10.25;;
72856;SDS011;62742;52.136;4.500;2023-08-24T15:57:34;14.45;;;9.45;;
72856;SDS011;62742;52.136;4.500;2023-08-24T16:00:01;11.88;;;7.85;;
72856;SDS011;62742;52.136;4.500;2023-08-24T16:02:29;10.32;;;6.43;;
72856;SDS011;62742;52.136;4.500;2023-08-24T16:05:00;10.85;;;6.07;;
72856;SDS011;62742;52.136;4.500;2023-08-24T16:07:35;8.85;;;5.15;;
72856;SDS011;62742;52.136;4.500;2023-08-24T16:10:03;8.25;;;3.90;;
72856;SDS011;62742;52.136;4.500;2023-08-24T16:12:32;8.20;;;3.70;;
72856;SDS011;62742;52.136;4.500;2023-08-24T16:14:59;6.72;;;3.47;;
72856;SDS011;62742;52.136;4.500;2023-08-24T16:17:25;9.43;;;3.22;;
72856;SDS011;62742;52.136;4.500;2023-08-24T16:19:52;8.85;;;3.25;;
72856;SDS011;62742;52.136;4.500;2023-08-24T16:22:21;7.25;;;3.08;;
72856;SDS011;62742;52.136;4.500;2023-08-24T16:24:56;7.13;;;3.28;;
72856;SDS011;62742;52.136;4.500;2023-08-24T16:27:23;6.13;;;3.28;;
72856;SDS011;62742;52.136;4.500;2023-08-24T16:32:46;6.30;;;3.65;;
72856;SDS011;62742;52.136;4.500;2023-08-24T16:35:28;7.68;;;3.50;;
72856;SDS011;62742;52.136;4.500;2023-08-24T16:37:56;6.13;;;3.25;;
72856;SDS011;62742;52.136;4.500;2023-08-24T16:40:22;6.72;;;3.35;;
72856;SDS011;62742;52.136;4.500;2023-08-24T16:42:53;7.53;;;3.28;;
72856;SDS011;62742;52.136;4.500;2023-08-24T16:45:26;7.60;;;3.60;;
72856;SDS011;62742;52.136;4.500;2023-08-24T16:48:00;6.93;;;3.53;;
72856;SDS011;62742;52.136;4.500;2023-08-24T16:50:33;7.13;;;3.25;;
72856;SDS011;62742;52.136;4.500;2023-08-24T16:53:18;9.10;;;3.53;;
72856;SDS011;62742;52.136;4.500;2023-08-24T16:55:49;7.53;;;3.70;;
72856;SDS011;62742;52.136;4.500;2023-08-24T16:58:22;9.13;;;4.40;;
72856;SDS011;62742;52.136;4.500;2023-08-24T17:00:52;8.70;;;4.22;;
72856;SDS011;62742;52.136;4.500;2023-08-24T17:03:20;6.45;;;3.63;;
72856;SDS011;62742;52.136;4.500;2023-08-24T17:05:50;8.52;;;3.97;;
72856;SDS011;62742;52.136;4.500;2023-08-24T17:08:18;9.68;;;5.53;;
72856;SDS011;62742;52.136;4.500;2023-08-24T17:10:55;10.60;;;6.68;;